sensor_id;sensor_type;location;lat;lon;timestamp;P1;durP1;ratioP1;P2;durP2;ratioP2
76107;SDS011;64834;52.516;10.528;2022-12-18T00:02:09;27.80;;;15.00;;
76107;SDS011;64834;52.516;10.528;2022-12-18T00:04:35;25.75;;;13.93;;
76107;SDS011;64834;52.516;10.528;2022-12-18T00:07:01;40.35;;;16.17;;
76107;SDS011;64834;52.516;10.528;2022-12-18T00:09:26;34.72;;;16.85;;
76107;SDS011;64834;52.516;10.528;2022-12-18T00:11:51;40.15;;;18.23;;
76107;SDS011;64834;52.516;10.528;2022-12-18T00:14:17;36.55;;;16.00;;
76107;SDS011;64834;52.516;10.528;2022-12-18T00:16:45;43.30;;;19.35;;
76107;SDS011;64834;52.516;10.528;2022-12-18T00:21:37;36.15;;;18.08;;
76107;SDS011;64834;52.516;10.528;2022-12-18T00:24:02;35.15;;;15.90;;
76107;SDS011;64834;52.516;10.528;2022-12-18T00:26:29;27.73;;;15.40;;
76107;SDS011;64834;52.516;10.528;2022-12-18T00:29:00;30.42;;;15.00;;
76107;SDS011;64834;52.516;10.528;2022-12-18T00:31:28;29.42;;;14.90;;
76107;SDS011;64834;52.516;10.528;2022-12-18T00:33:54;32.05;;;15.43;;
76107;SDS011;64834;52.516;10.528;2022-12-18T00:36:22;31.35;;;14.73;;
76107;SDS011;64834;52.516;10.528;2022-12-18T00:38:49;32.22;;;14.77;;
76107;SDS011;64834;52.516;10.528;2022-12-18T00:41:15;30.73;;;14.75;;
76107;SDS011;64834;52.516;10.528;2022-12-18T00:44:00;27.77;;;15.93;;
76107;SDS011;64834;52.516;10.528;2022-12-18T00:46:26;32.53;;;14.10;;
76107;SDS011;64834;52.516;10.528;2022-12-18T00:48:52;34.17;;;15.15;;
76107;SDS011;64834;52.516;10.528;2022-12-18T00:51:17;37.63;;;17.65;;
76107;SDS011;64834;52.516;10.528;2022-12-18T00:53:42;30.02;;;14.38;;
76107;SDS011;64834;52.516;10.528;2022-12-18T00:56:08;34.20;;;14.48;;
76107;SDS011;64834;52.516;10.528;2022-12-18T00:58:33;28.15;;;14.65;;
76107;SDS011;64834;52.516;10.528;2022-12-18T01:00:58;30.25;;;14.07;;
76107;SDS011;64834;52.516;10.528;2022-12-18T01:03:24;27.58;;;12.55;;
76107;SDS011;64834;52.516;10.528;2022-12-18T01:05:49;33.05;;;15.38;;
76107;SDS011;64834;52.516;10.528;2022-12-18T01:08:14;27.50;;;14.52;;
76107;SDS011;64834;52.516;10.528;2022-12-18T01:10:40;29.08;;;14.57;;
76107;SDS011;64834;52.516;10.528;2022-12-18T01:13:06;32.08;;;15.23;;
76107;SDS011;64834;52.516;10.528;2022-12-18T01:15:31;30.92;;;15.23;;
76107;SDS011;64834;52.516;10.528;2022-12-18T01:17:56;33.22;;;15.23;;
76107;SDS011;64834;52.516;10.528;2022-12-18T01:20:22;24.45;;;13.05;;
76107;SDS011;64834;52.516;10.528;2022-12-18T01:22:47;24.55;;;14.25;;
76107;SDS011;64834;52.516;10.528;2022-12-18T01:25:12;28.08;;;14.00;;
76107;SDS011;64834;52.516;10.528;2022-12-18T01:27:38;29.85;;;14.00;;
76107;SDS011;64834;52.516;10.528;2022-12-18T01:30:03;32.03;;;14.38;;
76107;SDS011;64834;52.516;10.528;2022-12-18T01:32:30;29.20;;;13.50;;
76107;SDS011;64834;52.516;10.528;2022-12-18T01:34:56;30.98;;;15.63;;
76107;SDS011;64834;52.516;10.528;2022-12-18T01:37:21;27.10;;;13.45;;
76107;SDS011;64834;52.516;10.528;2022-12-18T01:39:47;24.27;;;12.50;;
76107;SDS011;64834;52.516;10.528;2022-12-18T01:42:13;27.77;;;12.80;;
76107;SDS011;64834;52.516;10.528;2022-12-18T01:49:51;32.35;;;13.68;;
76107;SDS011;64834;52.516;10.528;2022-12-18T01:52:18;27.90;;;13.02;;
76107;SDS011;64834;52.516;10.528;2022-12-18T01:54:45;23.48;;;11.60;;
76107;SDS011;64834;52.516;10.528;2022-12-18T01:57:12;27.25;;;13.80;;
76107;SDS011;64834;52.516;10.528;2022-12-18T01:59:37;26.83;;;12.27;;
76107;SDS011;64834;52.516;10.528;2022-12-18T02:02:06;32.03;;;14.95;;
76107;SDS011;64834;52.516;10.528;2022-12-18T02:04:32;28.85;;;14.00;;
76107;SDS011;64834;52.516;10.528;2022-12-18T02:12:56;27.00;;;12.30;;
76107;SDS011;64834;52.516;10.528;2022-12-18T02:17:57;29.67;;;13.90;;
76107;SDS011;64834;52.516;10.528;2022-12-18T02:26:32;19.88;;;11.35;;
76107;SDS011;64834;52.516;10.528;2022-12-18T02:29:07;27.48;;;12.45;;
76107;SDS011;64834;52.516;10.528;2022-12-18T02:31:38;26.92;;;12.93;;
76107;SDS011;64834;52.516;10.528;2022-12-18T02:34:07;26.13;;;13.13;;
76107;SDS011;64834;52.516;10.528;2022-12-18T02:36:34;23.23;;;12.40;;
76107;SDS011;64834;52.516;10.528;2022-12-18T02:39:03;22.70;;;12.07;;
76107;SDS011;64834;52.516;10.528;2022-12-18T02:41:32;29.42;;;14.18;;
76107;SDS011;64834;52.516;10.528;2022-12-18T02:43:59;23.83;;;11.88;;
76107;SDS011;64834;52.516;10.528;2022-12-18T02:49:26;24.23;;;11.43;;
76107;SDS011;64834;52.516;10.528;2022-12-18T02:52:17;28.65;;;12.60;;
76107;SDS011;64834;52.516;10.528;2022-12-18T02:54:51;22.25;;;11.38;;
76107;SDS011;64834;52.516;10.528;2022-12-18T02:57:49;20.33;;;11.82;;
76107;SDS011;64834;52.516;10.528;2022-12-18T03:00:21;22.33;;;12.05;;
76107;SDS011;64834;52.516;10.528;2022-12-18T03:02:57;27.27;;;14.05;;
76107;SDS011;64834;52.516;10.528;2022-12-18T03:05:37;22.55;;;12.13;;
76107;SDS011;64834;52.516;10.528;2022-12-18T03:08:07;25.85;;;11.20;;
76107;SDS011;64834;52.516;10.528;2022-12-18T03:10:39;22.70;;;11.68;;
76107;SDS011;64834;52.516;10.528;2022-12-18T03:13:12;24.95;;;12.43;;
76107;SDS011;64834;52.516;10.528;2022-12-18T03:15:48;21.35;;;11.57;;
76107;SDS011;64834;52.516;10.528;2022-12-18T03:18:39;29.02;;;12.45;;
76107;SDS011;64834;52.516;10.528;2022-12-18T03:21:11;22.67;;;10.60;;
76107;SDS011;64834;52.516;10.528;2022-12-18T03:23:43;28.92;;;13.90;;
76107;SDS011;64834;52.516;10.528;2022-12-18T03:26:12;21.95;;;11.02;;
76107;SDS011;64834;52.516;10.528;2022-12-18T03:29:16;25.00;;;11.80;;
76107;SDS011;64834;52.516;10.528;2022-12-18T03:31:37;24.83;;;12.80;;
76107;SDS011;64834;52.516;10.528;2022-12-18T03:34:12;23.95;;;11.48;;
76107;SDS011;64834;52.516;10.528;2022-12-18T03:36:41;26.33;;;12.90;;
76107;SDS011;64834;52.516;10.528;2022-12-18T03:39:07;21.75;;;12.07;;
76107;SDS011;64834;52.516;10.528;2022-12-18T03:41:33;30.05;;;14.38;;
76107;SDS011;64834;52.516;10.528;2022-12-18T03:44:14;25.02;;;11.57;;
76107;SDS011;64834;52.516;10.528;2022-12-18T03:47:19;24.92;;;14.05;;
76107;SDS011;64834;52.516;10.528;2022-12-18T03:50:14;23.27;;;11.50;;
76107;SDS011;64834;52.516;10.528;2022-12-18T03:52:50;21.60;;;12.32;;
76107;SDS011;64834;52.516;10.528;2022-12-18T03:57:48;22.92;;;9.93;;
76107;SDS011;64834;52.516;10.528;2022-12-18T04:00:16;28.30;;;12.27;;
76107;SDS011;64834;52.516;10.528;2022-12-18T04:02:53;23.60;;;12.27;;
76107;SDS011;64834;52.516;10.528;2022-12-18T04:05:21;27.25;;;13.18;;
76107;SDS011;64834;52.516;10.528;2022-12-18T04:07:49;25.45;;;13.00;;
76107;SDS011;64834;52.516;10.528;2022-12-18T04:10:16;24.13;;;11.30;;
76107;SDS011;64834;52.516;10.528;2022-12-18T04:12:42;25.92;;;13.73;;
76107;SDS011;64834;52.516;10.528;2022-12-18T04:15:08;27.10;;;11.38;;
76107;SDS011;64834;52.516;10.528;2022-12-18T04:17:34;24.67;;;11.57;;
76107;SDS011;64834;52.516;10.528;2022-12-18T04:19:59;23.10;;;11.82;;
76107;SDS011;64834;52.516;10.528;2022-12-18T04:22:25;27.80;;;11.40;;
76107;SDS011;64834;52.516;10.528;2022-12-18T04:24:50;24.35;;;11.88;;
76107;SDS011;64834;52.516;10.528;2022-12-18T04:27:16;24.05;;;12.65;;
76107;SDS011;64834;52.516;10.528;2022-12-18T04:29:41;24.92;;;12.48;;
76107;SDS011;64834;52.516;10.528;2022-12-18T04:32:07;27.30;;;10.93;;
76107;SDS011;64834;52.516;10.528;2022-12-18T04:34:32;25.00;;;12.30;;
76107;SDS011;64834;52.516;10.528;2022-12-18T04:36:58;25.58;;;11.93;;
76107;SDS011;64834;52.516;10.528;2022-12-18T04:39:24;25.92;;;11.48;;
76107;SDS011;64834;52.516;10.528;2022-12-18T04:41:49;19.13;;;10.10;;
76107;SDS011;64834;52.516;10.528;2022-12-18T04:44:14;26.58;;;11.95;;
76107;SDS011;64834;52.516;10.528;2022-12-18T04:46:40;20.73;;;10.98;;
76107;SDS011;64834;52.516;10.528;2022-12-18T04:49:05;31.50;;;11.88;;
76107;SDS011;64834;52.516;10.528;2022-12-18T04:51:30;24.08;;;11.40;;
76107;SDS011;64834;52.516;10.528;2022-12-18T04:53:56;17.42;;;9.68;;
76107;SDS011;64834;52.516;10.528;2022-12-18T04:56:21;16.77;;;11.68;;
76107;SDS011;64834;52.516;10.528;2022-12-18T04:58:47;20.15;;;9.88;;
76107;SDS011;64834;52.516;10.528;2022-12-18T05:01:13;21.75;;;9.25;;
76107;SDS011;64834;52.516;10.528;2022-12-18T05:03:41;20.92;;;10.57;;
76107;SDS011;64834;52.516;10.528;2022-12-18T05:06:07;20.98;;;8.85;;
76107;SDS011;64834;52.516;10.528;2022-12-18T05:08:33;19.48;;;9.00;;
76107;SDS011;64834;52.516;10.528;2022-12-18T05:11:09;14.65;;;9.13;;
76107;SDS011;64834;52.516;10.528;2022-12-18T05:13:36;21.00;;;11.13;;
76107;SDS011;64834;52.516;10.528;2022-12-18T05:16:03;19.05;;;9.63;;
76107;SDS011;64834;52.516;10.528;2022-12-18T05:18:32;21.60;;;10.75;;
76107;SDS011;64834;52.516;10.528;2022-12-18T05:21:00;23.90;;;10.45;;
76107;SDS011;64834;52.516;10.528;2022-12-18T05:23:26;27.80;;;11.77;;
76107;SDS011;64834;52.516;10.528;2022-12-18T05:25:59;27.27;;;13.05;;
76107;SDS011;64834;52.516;10.528;2022-12-18T05:28:26;27.73;;;11.85;;
76107;SDS011;64834;52.516;10.528;2022-12-18T05:30:54;22.10;;;11.40;;
76107;SDS011;64834;52.516;10.528;2022-12-18T05:33:21;26.10;;;10.55;;
76107;SDS011;64834;52.516;10.528;2022-12-18T05:35:54;15.75;;;9.80;;
76107;SDS011;64834;52.516;10.528;2022-12-18T05:38:25;20.05;;;10.27;;
76107;SDS011;64834;52.516;10.528;2022-12-18T05:40:51;19.02;;;10.38;;
76107;SDS011;64834;52.516;10.528;2022-12-18T05:43:17;19.85;;;8.88;;
76107;SDS011;64834;52.516;10.528;2022-12-18T05:45:44;23.70;;;8.82;;
76107;SDS011;64834;52.516;10.528;2022-12-18T05:48:09;21.17;;;10.57;;
76107;SDS011;64834;52.516;10.528;2022-12-18T05:50:36;24.23;;;11.90;;
76107;SDS011;64834;52.516;10.528;2022-12-18T05:53:03;16.75;;;9.07;;
76107;SDS011;64834;52.516;10.528;2022-12-18T05:55:32;21.20;;;10.23;;
76107;SDS011;64834;52.516;10.528;2022-12-18T05:58:02;19.35;;;10.63;;
76107;SDS011;64834;52.516;10.528;2022-12-18T06:00:28;22.10;;;10.07;;
76107;SDS011;64834;52.516;10.528;2022-12-18T06:02:54;21.15;;;9.43;;
76107;SDS011;64834;52.516;10.528;2022-12-18T06:05:19;27.45;;;8.88;;
76107;SDS011;64834;52.516;10.528;2022-12-18T06:07:44;13.68;;;7.95;;
76107;SDS011;64834;52.516;10.528;2022-12-18T06:10:10;19.20;;;10.32;;
76107;SDS011;64834;52.516;10.528;2022-12-18T06:12:35;21.88;;;10.35;;
76107;SDS011;64834;52.516;10.528;2022-12-18T06:15:01;17.52;;;8.65;;
76107;SDS011;64834;52.516;10.528;2022-12-18T06:17:30;17.67;;;9.25;;
76107;SDS011;64834;52.516;10.528;2022-12-18T06:19:56;18.95;;;8.40;;
76107;SDS011;64834;52.516;10.528;2022-12-18T06:22:21;19.67;;;9.40;;
76107;SDS011;64834;52.516;10.528;2022-12-18T06:24:47;17.55;;;8.38;;
76107;SDS011;64834;52.516;10.528;2022-12-18T06:27:12;18.73;;;10.02;;
76107;SDS011;64834;52.516;10.528;2022-12-18T06:29:37;14.88;;;8.95;;
76107;SDS011;64834;52.516;10.528;2022-12-18T06:32:03;20.83;;;9.32;;
76107;SDS011;64834;52.516;10.528;2022-12-18T06:34:28;18.48;;;9.15;;
76107;SDS011;64834;52.516;10.528;2022-12-18T06:36:53;16.42;;;9.13;;
76107;SDS011;64834;52.516;10.528;2022-12-18T06:39:19;17.98;;;8.45;;
76107;SDS011;64834;52.516;10.528;2022-12-18T06:41:44;19.05;;;10.00;;
76107;SDS011;64834;52.516;10.528;2022-12-18T06:44:10;18.70;;;8.23;;
76107;SDS011;64834;52.516;10.528;2022-12-18T06:46:35;19.40;;;9.45;;
76107;SDS011;64834;52.516;10.528;2022-12-18T06:49:00;20.20;;;9.35;;
76107;SDS011;64834;52.516;10.528;2022-12-18T06:51:26;18.00;;;10.40;;
76107;SDS011;64834;52.516;10.528;2022-12-18T06:53:51;14.93;;;8.23;;
76107;SDS011;64834;52.516;10.528;2022-12-18T06:56:16;18.90;;;10.75;;
76107;SDS011;64834;52.516;10.528;2022-12-18T06:58:42;21.67;;;11.07;;
76107;SDS011;64834;52.516;10.528;2022-12-18T07:01:08;22.75;;;11.80;;
76107;SDS011;64834;52.516;10.528;2022-12-18T07:03:35;18.52;;;9.15;;
76107;SDS011;64834;52.516;10.528;2022-12-18T07:06:01;19.42;;;10.73;;
76107;SDS011;64834;52.516;10.528;2022-12-18T07:08:26;19.23;;;10.13;;
76107;SDS011;64834;52.516;10.528;2022-12-18T07:10:53;25.85;;;11.98;;
76107;SDS011;64834;52.516;10.528;2022-12-18T07:13:19;24.20;;;10.68;;
76107;SDS011;64834;52.516;10.528;2022-12-18T07:15:44;43.08;;;18.80;;
76107;SDS011;64834;52.516;10.528;2022-12-18T07:18:09;26.75;;;12.75;;
76107;SDS011;64834;52.516;10.528;2022-12-18T07:20:35;24.30;;;13.60;;
76107;SDS011;64834;52.516;10.528;2022-12-18T07:23:04;31.83;;;15.77;;
76107;SDS011;64834;52.516;10.528;2022-12-18T07:25:30;40.92;;;16.95;;
76107;SDS011;64834;52.516;10.528;2022-12-18T07:27:59;30.13;;;13.35;;
76107;SDS011;64834;52.516;10.528;2022-12-18T07:30:24;27.25;;;13.20;;
76107;SDS011;64834;52.516;10.528;2022-12-18T07:32:50;25.55;;;11.50;;
76107;SDS011;64834;52.516;10.528;2022-12-18T07:35:15;17.85;;;9.20;;
76107;SDS011;64834;52.516;10.528;2022-12-18T07:37:40;19.50;;;11.05;;
76107;SDS011;64834;52.516;10.528;2022-12-18T07:40:06;25.08;;;11.95;;
76107;SDS011;64834;52.516;10.528;2022-12-18T07:42:32;20.35;;;9.45;;
76107;SDS011;64834;52.516;10.528;2022-12-18T07:44:57;19.30;;;10.05;;
76107;SDS011;64834;52.516;10.528;2022-12-18T07:47:23;19.73;;;8.90;;
76107;SDS011;64834;52.516;10.528;2022-12-18T07:49:49;22.88;;;11.73;;
76107;SDS011;64834;52.516;10.528;2022-12-18T07:52:14;24.02;;;11.93;;
76107;SDS011;64834;52.516;10.528;2022-12-18T07:54:40;23.48;;;10.40;;
76107;SDS011;64834;52.516;10.528;2022-12-18T07:57:05;24.73;;;12.35;;
76107;SDS011;64834;52.516;10.528;2022-12-18T07:59:31;22.35;;;11.65;;
76107;SDS011;64834;52.516;10.528;2022-12-18T08:01:56;25.63;;;11.80;;
76107;SDS011;64834;52.516;10.528;2022-12-18T08:04:22;26.13;;;11.73;;
76107;SDS011;64834;52.516;10.528;2022-12-18T08:06:47;23.15;;;9.85;;
76107;SDS011;64834;52.516;10.528;2022-12-18T08:09:12;17.95;;;11.27;;
76107;SDS011;64834;52.516;10.528;2022-12-18T08:11:38;21.10;;;10.95;;
76107;SDS011;64834;52.516;10.528;2022-12-18T08:14:03;22.15;;;11.15;;
76107;SDS011;64834;52.516;10.528;2022-12-18T08:16:29;24.17;;;11.70;;
76107;SDS011;64834;52.516;10.528;2022-12-18T08:18:55;16.95;;;8.10;;
76107;SDS011;64834;52.516;10.528;2022-12-18T08:21:22;23.35;;;12.15;;
76107;SDS011;64834;52.516;10.528;2022-12-18T08:23:50;23.30;;;10.98;;
76107;SDS011;64834;52.516;10.528;2022-12-18T08:26:16;17.85;;;9.82;;
76107;SDS011;64834;52.516;10.528;2022-12-18T08:28:42;18.55;;;8.75;;
76107;SDS011;64834;52.516;10.528;2022-12-18T08:31:08;23.70;;;7.88;;
76107;SDS011;64834;52.516;10.528;2022-12-18T08:33:34;20.13;;;8.98;;
76107;SDS011;64834;52.516;10.528;2022-12-18T08:36:00;20.33;;;9.70;;
76107;SDS011;64834;52.516;10.528;2022-12-18T08:38:26;12.85;;;6.55;;
76107;SDS011;64834;52.516;10.528;2022-12-18T08:41:05;9.48;;;5.65;;
76107;SDS011;64834;52.516;10.528;2022-12-18T08:43:32;11.27;;;6.38;;
76107;SDS011;64834;52.516;10.528;2022-12-18T08:46:17;11.45;;;5.15;;
76107;SDS011;64834;52.516;10.528;2022-12-18T08:48:43;7.35;;;5.00;;
76107;SDS011;64834;52.516;10.528;2022-12-18T08:51:08;13.45;;;8.43;;
76107;SDS011;64834;52.516;10.528;2022-12-18T08:53:34;10.20;;;4.72;;
76107;SDS011;64834;52.516;10.528;2022-12-18T08:56:00;11.13;;;5.82;;
76107;SDS011;64834;52.516;10.528;2022-12-18T08:58:25;8.15;;;4.65;;
76107;SDS011;64834;52.516;10.528;2022-12-18T09:00:51;13.45;;;6.75;;
76107;SDS011;64834;52.516;10.528;2022-12-18T09:03:17;16.15;;;8.63;;
76107;SDS011;64834;52.516;10.528;2022-12-18T09:05:45;13.95;;;7.57;;
76107;SDS011;64834;52.516;10.528;2022-12-18T09:08:11;12.02;;;5.93;;
76107;SDS011;64834;52.516;10.528;2022-12-18T09:10:45;16.05;;;5.03;;
76107;SDS011;64834;52.516;10.528;2022-12-18T09:13:12;10.95;;;5.93;;
76107;SDS011;64834;52.516;10.528;2022-12-18T09:15:50;18.25;;;9.60;;
76107;SDS011;64834;52.516;10.528;2022-12-18T09:18:18;18.00;;;8.02;;
76107;SDS011;64834;52.516;10.528;2022-12-18T09:20:44;14.18;;;7.93;;
76107;SDS011;64834;52.516;10.528;2022-12-18T09:23:10;7.22;;;3.90;;
76107;SDS011;64834;52.516;10.528;2022-12-18T09:25:39;19.08;;;9.05;;
76107;SDS011;64834;52.516;10.528;2022-12-18T09:28:14;18.95;;;8.40;;
76107;SDS011;64834;52.516;10.528;2022-12-18T09:30:41;13.23;;;6.25;;
76107;SDS011;64834;52.516;10.528;2022-12-18T09:33:09;11.77;;;5.97;;
76107;SDS011;64834;52.516;10.528;2022-12-18T09:35:37;16.05;;;7.93;;
76107;SDS011;64834;52.516;10.528;2022-12-18T09:38:03;19.30;;;9.38;;
76107;SDS011;64834;52.516;10.528;2022-12-18T09:40:32;17.98;;;9.70;;
76107;SDS011;64834;52.516;10.528;2022-12-18T09:43:02;19.55;;;9.30;;
76107;SDS011;64834;52.516;10.528;2022-12-18T09:45:35;22.33;;;11.73;;
76107;SDS011;64834;52.516;10.528;2022-12-18T09:48:05;7.82;;;4.15;;
76107;SDS011;64834;52.516;10.528;2022-12-18T09:50:39;23.40;;;10.50;;
76107;SDS011;64834;52.516;10.528;2022-12-18T09:53:06;13.82;;;5.65;;
76107;SDS011;64834;52.516;10.528;2022-12-18T09:55:40;29.73;;;7.00;;
76107;SDS011;64834;52.516;10.528;2022-12-18T09:58:12;18.92;;;9.00;;
76107;SDS011;64834;52.516;10.528;2022-12-18T10:00:43;24.73;;;11.57;;
76107;SDS011;64834;52.516;10.528;2022-12-18T10:03:10;18.38;;;8.98;;
76107;SDS011;64834;52.516;10.528;2022-12-18T10:05:39;20.95;;;9.90;;
76107;SDS011;64834;52.516;10.528;2022-12-18T10:27:50;21.98;;;8.55;;
76107;SDS011;64834;52.516;10.528;2022-12-18T10:30:32;14.45;;;7.03;;
76107;SDS011;64834;52.516;10.528;2022-12-18T10:33:01;16.13;;;8.85;;
76107;SDS011;64834;52.516;10.528;2022-12-18T10:35:28;18.65;;;9.77;;
76107;SDS011;64834;52.516;10.528;2022-12-18T10:38:00;24.52;;;11.30;;
76107;SDS011;64834;52.516;10.528;2022-12-18T10:40:31;25.52;;;11.82;;
76107;SDS011;64834;52.516;10.528;2022-12-18T10:43:13;21.23;;;10.50;;
76107;SDS011;64834;52.516;10.528;2022-12-18T10:45:40;23.67;;;9.82;;
76107;SDS011;64834;52.516;10.528;2022-12-18T10:48:19;12.27;;;7.88;;
76107;SDS011;64834;52.516;10.528;2022-12-18T10:50:47;13.20;;;6.45;;
76107;SDS011;64834;52.516;10.528;2022-12-18T10:53:18;20.80;;;9.00;;
76107;SDS011;64834;52.516;10.528;2022-12-18T10:55:46;26.50;;;10.73;;
76107;SDS011;64834;52.516;10.528;2022-12-18T10:58:34;19.63;;;7.95;;
76107;SDS011;64834;52.516;10.528;2022-12-18T11:01:04;22.80;;;9.85;;
76107;SDS011;64834;52.516;10.528;2022-12-18T11:03:41;22.85;;;10.00;;
76107;SDS011;64834;52.516;10.528;2022-12-18T11:06:24;25.98;;;11.35;;
76107;SDS011;64834;52.516;10.528;2022-12-18T11:09:03;20.35;;;9.38;;
76107;SDS011;64834;52.516;10.528;2022-12-18T11:11:31;15.52;;;6.40;;
76107;SDS011;64834;52.516;10.528;2022-12-18T11:16:28;17.35;;;9.35;;
76107;SDS011;64834;52.516;10.528;2022-12-18T11:18:59;18.75;;;8.48;;
76107;SDS011;64834;52.516;10.528;2022-12-18T11:21:39;23.02;;;11.00;;
76107;SDS011;64834;52.516;10.528;2022-12-18T11:24:07;21.23;;;9.32;;
76107;SDS011;64834;52.516;10.528;2022-12-18T11:26:45;24.98;;;9.55;;
76107;SDS011;64834;52.516;10.528;2022-12-18T11:29:16;16.55;;;8.13;;
76107;SDS011;64834;52.516;10.528;2022-12-18T11:31:43;24.42;;;11.65;;
76107;SDS011;64834;52.516;10.528;2022-12-18T11:34:13;23.45;;;10.07;;
76107;SDS011;64834;52.516;10.528;2022-12-18T11:36:46;28.05;;;11.55;;
76107;SDS011;64834;52.516;10.528;2022-12-18T11:39:34;25.15;;;11.95;;
76107;SDS011;64834;52.516;10.528;2022-12-18T11:47:38;28.17;;;12.10;;
76107;SDS011;64834;52.516;10.528;2022-12-18T11:50:30;25.75;;;11.65;;
76107;SDS011;64834;52.516;10.528;2022-12-18T11:55:41;32.00;;;14.75;;
76107;SDS011;64834;52.516;10.528;2022-12-18T11:58:24;27.58;;;12.23;;
76107;SDS011;64834;52.516;10.528;2022-12-18T12:01:02;25.98;;;14.40;;
76107;SDS011;64834;52.516;10.528;2022-12-18T12:03:50;28.70;;;14.13;;
76107;SDS011;64834;52.516;10.528;2022-12-18T12:14:33;14.35;;;6.25;;
76107;SDS011;64834;52.516;10.528;2022-12-18T12:17:08;20.35;;;9.20;;
76107;SDS011;64834;52.516;10.528;2022-12-18T12:22:28;30.13;;;13.63;;
76107;SDS011;64834;52.516;10.528;2022-12-18T12:33:30;15.35;;;8.73;;
76107;SDS011;64834;52.516;10.528;2022-12-18T12:38:54;31.60;;;13.77;;
76107;SDS011;64834;52.516;10.528;2022-12-18T12:41:23;28.67;;;13.82;;
76107;SDS011;64834;52.516;10.528;2022-12-18T12:44:13;21.63;;;9.63;;
76107;SDS011;64834;52.516;10.528;2022-12-18T12:46:44;19.35;;;10.27;;
76107;SDS011;64834;52.516;10.528;2022-12-18T12:49:17;24.15;;;11.07;;
76107;SDS011;64834;52.516;10.528;2022-12-18T12:51:47;18.90;;;8.60;;
76107;SDS011;64834;52.516;10.528;2022-12-18T12:54:21;20.40;;;10.05;;
76107;SDS011;64834;52.516;10.528;2022-12-18T12:56:51;23.70;;;10.43;;
76107;SDS011;64834;52.516;10.528;2022-12-18T13:02:29;17.85;;;7.75;;
76107;SDS011;64834;52.516;10.528;2022-12-18T13:07:41;27.23;;;10.95;;
76107;SDS011;64834;52.516;10.528;2022-12-18T13:12:53;25.02;;;13.18;;
76107;SDS011;64834;52.516;10.528;2022-12-18T13:15:46;24.38;;;11.25;;
76107;SDS011;64834;52.516;10.528;2022-12-18T13:18:20;34.47;;;15.57;;
76107;SDS011;64834;52.516;10.528;2022-12-18T13:23:20;31.23;;;13.93;;
76107;SDS011;64834;52.516;10.528;2022-12-18T13:31:10;22.98;;;10.35;;
76107;SDS011;64834;52.516;10.528;2022-12-18T13:36:16;19.08;;;9.68;;
76107;SDS011;64834;52.516;10.528;2022-12-18T13:39:08;27.65;;;14.52;;
76107;SDS011;64834;52.516;10.528;2022-12-18T13:42:38;25.25;;;11.30;;
76107;SDS011;64834;52.516;10.528;2022-12-18T13:44:59;30.20;;;14.63;;
76107;SDS011;64834;52.516;10.528;2022-12-18T13:47:26;27.45;;;14.30;;
76107;SDS011;64834;52.516;10.528;2022-12-18T13:49:56;30.60;;;15.30;;
76107;SDS011;64834;52.516;10.528;2022-12-18T13:52:23;28.55;;;16.75;;
76107;SDS011;64834;52.516;10.528;2022-12-18T13:54:51;26.23;;;14.15;;
76107;SDS011;64834;52.516;10.528;2022-12-18T13:57:25;25.60;;;13.55;;
76107;SDS011;64834;52.516;10.528;2022-12-18T13:59:58;22.38;;;11.52;;
76107;SDS011;64834;52.516;10.528;2022-12-18T14:02:44;23.13;;;11.55;;
76107;SDS011;64834;52.516;10.528;2022-12-18T14:08:01;19.17;;;10.45;;
76107;SDS011;64834;52.516;10.528;2022-12-18T14:10:33;25.95;;;14.13;;
76107;SDS011;64834;52.516;10.528;2022-12-18T14:13:02;25.95;;;12.50;;
76107;SDS011;64834;52.516;10.528;2022-12-18T14:15:32;32.22;;;15.02;;
76107;SDS011;64834;52.516;10.528;2022-12-18T14:18:01;32.03;;;13.20;;
76107;SDS011;64834;52.516;10.528;2022-12-18T14:20:27;31.80;;;14.20;;
76107;SDS011;64834;52.516;10.528;2022-12-18T14:22:54;30.40;;;13.57;;
76107;SDS011;64834;52.516;10.528;2022-12-18T14:25:22;22.10;;;11.77;;
76107;SDS011;64834;52.516;10.528;2022-12-18T14:30:24;20.45;;;10.15;;
76107;SDS011;64834;52.516;10.528;2022-12-18T14:33:16;20.10;;;11.77;;
76107;SDS011;64834;52.516;10.528;2022-12-18T14:40:58;19.90;;;10.25;;
76107;SDS011;64834;52.516;10.528;2022-12-18T14:43:33;20.45;;;9.75;;
76107;SDS011;64834;52.516;10.528;2022-12-18T14:46:00;17.48;;;9.70;;
76107;SDS011;64834;52.516;10.528;2022-12-18T14:51:22;23.95;;;9.68;;
76107;SDS011;64834;52.516;10.528;2022-12-18T14:53:48;18.08;;;9.40;;
76107;SDS011;64834;52.516;10.528;2022-12-18T14:56:35;13.25;;;7.13;;
76107;SDS011;64834;52.516;10.528;2022-12-18T15:02:04;25.17;;;11.82;;
76107;SDS011;64834;52.516;10.528;2022-12-18T15:04:42;17.55;;;9.98;;
76107;SDS011;64834;52.516;10.528;2022-12-18T15:07:14;21.55;;;10.60;;
76107;SDS011;64834;52.516;10.528;2022-12-18T15:09:42;20.73;;;10.90;;
76107;SDS011;64834;52.516;10.528;2022-12-18T15:12:37;16.02;;;6.28;;
76107;SDS011;64834;52.516;10.528;2022-12-18T15:15:43;19.52;;;9.05;;
76107;SDS011;64834;52.516;10.528;2022-12-18T15:18:04;15.23;;;8.60;;
76107;SDS011;64834;52.516;10.528;2022-12-18T15:20:32;12.57;;;7.20;;
76107;SDS011;64834;52.516;10.528;2022-12-18T15:23:04;13.40;;;7.43;;
76107;SDS011;64834;52.516;10.528;2022-12-18T15:25:36;14.98;;;7.95;;
76107;SDS011;64834;52.516;10.528;2022-12-18T15:28:03;15.02;;;8.20;;
76107;SDS011;64834;52.516;10.528;2022-12-18T15:30:41;9.30;;;6.72;;
76107;SDS011;64834;52.516;10.528;2022-12-18T15:33:43;9.88;;;6.00;;
76107;SDS011;64834;52.516;10.528;2022-12-18T15:36:16;11.38;;;6.80;;
76107;SDS011;64834;52.516;10.528;2022-12-18T15:38:45;10.10;;;5.03;;
76107;SDS011;64834;52.516;10.528;2022-12-18T15:41:15;25.58;;;9.68;;
76107;SDS011;64834;52.516;10.528;2022-12-18T15:43:43;9.48;;;4.75;;
76107;SDS011;64834;52.516;10.528;2022-12-18T15:46:14;15.38;;;8.20;;
76107;SDS011;64834;52.516;10.528;2022-12-18T15:48:45;15.00;;;8.15;;
76107;SDS011;64834;52.516;10.528;2022-12-18T15:51:23;7.97;;;4.82;;
76107;SDS011;64834;52.516;10.528;2022-12-18T15:53:55;11.48;;;5.55;;
76107;SDS011;64834;52.516;10.528;2022-12-18T15:56:23;12.50;;;5.78;;
76107;SDS011;64834;52.516;10.528;2022-12-18T15:59:14;11.13;;;6.55;;
76107;SDS011;64834;52.516;10.528;2022-12-18T16:01:44;15.73;;;8.02;;
76107;SDS011;64834;52.516;10.528;2022-12-18T16:04:12;13.18;;;6.57;;
76107;SDS011;64834;52.516;10.528;2022-12-18T16:06:40;12.38;;;7.22;;
76107;SDS011;64834;52.516;10.528;2022-12-18T16:09:06;18.17;;;7.35;;
76107;SDS011;64834;52.516;10.528;2022-12-18T16:11:32;17.58;;;8.60;;
76107;SDS011;64834;52.516;10.528;2022-12-18T16:16:57;12.00;;;6.70;;
76107;SDS011;64834;52.516;10.528;2022-12-18T16:19:24;17.65;;;4.78;;
76107;SDS011;64834;52.516;10.528;2022-12-18T16:21:51;11.80;;;6.88;;
76107;SDS011;64834;52.516;10.528;2022-12-18T16:24:24;11.55;;;6.20;;
76107;SDS011;64834;52.516;10.528;2022-12-18T16:26:51;18.95;;;9.50;;
76107;SDS011;64834;52.516;10.528;2022-12-18T16:29:17;8.27;;;6.72;;